Time;durP1;ratioP1;P1;durP2;ratioP2;P2;SDS_P1;SDS_P2;PMS_P1;PMS_P2;Temp;Humidity;BMP_temperature;BMP_pressure;BME280_temperature;BME280_humidity;BME280_pressure;Samples;Min_cycle;Max_cycle;Signal;HPM_P1;HPM_P2
2021/08/10 00:00:36;;;;;;;5.78;1.87;;;;;;;18.09;82.71;96895.86;1733058;80;20967;-82
2021/08/10 00:03:04;;;;;;;3.98;2.02;;;;;;;18.04;82.95;96879.10;1738568;81;20976;-82
2021/08/10 00:05:30;;;;;;;4.80;1.50;;;;;;;17.99;83.05;96875.30;1747811;81;21018;-82
2021/08/10 00:07:56;;;;;;;3.22;2.00;;;;;;;17.99;82.86;96877.94;1751493;81;20929;-82
2021/08/10 00:10:22;;;;;;;4.80;1.85;;;;;;;17.98;82.93;96878.95;1748735;80;21335;-82
2021/08/10 00:12:48;;;;;;;2.35;1.82;;;;;;;17.99;82.98;96879.76;1745775;80;20973;-82
2021/08/10 00:15:14;;;;;;;4.05;1.98;;;;;;;18.00;82.82;96890.57;1753290;80;20988;-82
2021/08/10 00:17:40;;;;;;;4.20;1.82;;;;;;;18.02;82.94;96897.73;1712040;82;21324;-82
2021/08/10 00:20:08;;;;;;;4.42;2.22;;;;;;;18.03;82.80;96897.22;1749066;80;20991;-82
2021/08/10 00:22:33;;;;;;;3.40;1.70;;;;;;;18.03;82.88;96891.95;1735996;81;21501;-82
2021/08/10 00:24:59;;;;;;;1.90;1.57;;;;;;;18.03;82.86;96894.08;1751474;80;20984;-83
2021/08/10 00:27:25;;;;;;;3.08;1.90;;;;;;;18.05;82.73;96889.40;1750306;80;21404;-82
2021/08/10 00:29:51;;;;;;;2.87;1.80;;;;;;;18.05;82.65;96889.91;1750380;81;21354;-82
2021/08/10 00:32:16;;;;;;;4.60;1.77;;;;;;;18.06;82.70;96895.47;1747758;81;20968;-82
2021/08/10 00:34:42;;;;;;;3.12;1.50;;;;;;;18.08;82.70;96894.77;1751567;80;20975;-82
2021/08/10 00:37:09;;;;;;;2.72;2.00;;;;;;;18.10;82.38;96890.89;1750232;80;21378;-82
2021/08/10 00:39:34;;;;;;;2.75;1.82;;;;;;;18.12;82.28;96895.93;1707572;83;21056;-83
2021/08/10 00:42:00;;;;;;;4.17;2.15;;;;;;;18.16;82.21;96897.10;1686898;83;21018;-82
2021/08/10 00:44:26;;;;;;;6.97;3.12;;;;;;;18.17;81.98;96896.08;1717216;82;20985;-82
2021/08/10 00:46:52;;;;;;;5.17;2.30;;;;;;;18.13;81.89;96898.86;1751552;81;20972;-82
2021/08/10 00:49:18;;;;;;;4.80;1.75;;;;;;;18.12;81.84;96902.00;1708678;83;21022;-82
2021/08/10 00:51:45;;;;;;;3.55;2.27;;;;;;;18.11;81.88;96897.76;1730481;80;20976;-83
2021/08/10 00:54:11;;;;;;;4.33;2.05;;;;;;;18.13;81.70;96901.48;1706897;82;21004;-82
2021/08/10 00:56:36;;;;;;;2.58;1.90;;;;;;;18.12;81.70;96902.51;1722841;81;21454;-82
2021/08/10 00:59:02;;;;;;;3.98;2.10;;;;;;;18.11;81.88;96906.16;1722186;81;20977;-82
2021/08/10 01:01:28;;;;;;;4.60;1.90;;;;;;;18.07;82.02;96907.62;1726144;81;20970;-82
2021/08/10 01:03:54;;;;;;;4.03;1.90;;;;;;;18.05;82.16;96916.20;1722401;81;20925;-82
2021/08/10 01:06:31;;;;;;;4.60;2.27;;;;;;;18.06;82.21;96914.70;1724526;81;20926;-82
2021/08/10 01:09:02;;;;;;;2.65;1.90;;;;;;;18.05;82.24;96915.70;1693053;81;21457;-82
2021/08/10 01:11:49;;;;;;;3.95;2.10;;;;;;;18.08;82.36;96924.49;1699917;82;21100;-82
2021/08/10 01:14:48;;;;;;;2.02;1.65;;;;;;;18.11;82.59;96924.56;1711023;82;20995;-82
2021/08/10 01:17:27;;;;;;;3.20;1.80;;;;;;;18.12;82.44;96911.71;1705623;82;20973;-83
2021/08/10 01:20:04;;;;;;;5.95;2.10;;;;;;;18.03;82.41;96907.73;1717985;82;20991;-82
2021/08/10 01:22:30;;;;;;;5.37;1.90;;;;;;;17.98;82.55;96896.55;1711558;82;21061;-82
2021/08/10 01:25:53;;;;;;;3.70;2.00;;;;;;;17.96;82.76;96900.72;1722751;81;21028;-82
2021/08/10 01:28:33;;;;;;;3.83;1.80;;;;;;;17.95;82.71;96896.99;1715832;81;20945;-82
2021/08/10 01:31:11;;;;;;;3.65;1.67;;;;;;;17.94;82.91;96908.02;1726366;81;20989;-82
2021/08/10 01:33:41;;;;;;;3.08;2.08;;;;;;;17.93;83.01;96900.35;1718489;81;20911;-82
2021/08/10 01:36:08;;;;;;;3.62;1.90;;;;;;;17.90;83.18;96900.78;1721446;81;21015;-82
2021/08/10 01:38:34;;;;;;;3.95;1.70;;;;;;;17.87;83.35;96899.87;1705842;82;20997;-82
2021/08/10 01:40:59;;;;;;;4.45;1.85;;;;;;;17.87;83.51;96893.30;1678663;83;20957;-82
2021/08/10 01:43:26;;;;;;;6.03;2.30;;;;;;;17.85;83.60;96893.52;1707748;82;20982;-82
2021/08/10 01:45:52;;;;;;;4.28;2.08;;;;;;;17.83;83.56;96900.82;1709696;82;20987;-82
2021/08/10 01:48:18;;;;;;;2.87;1.90;;;;;;;17.82;83.63;96903.16;1709597;82;20985;-82
2021/08/10 01:50:45;;;;;;;2.00;1.67;;;;;;;17.83;83.57;96910.53;1712907;82;20992;-82
2021/08/10 01:53:10;;;;;;;5.42;2.20;;;;;;;17.87;83.43;96911.20;1751004;81;20925;-82
2021/08/10 01:55:36;;;;;;;4.05;1.80;;;;;;;17.87;83.35;96921.71;1746822;80;21331;-82
2021/08/10 01:58:02;;;;;;;2.72;2.00;;;;;;;17.91;83.47;96923.42;1751343;80;20980;-82
2021/08/10 02:00:29;;;;;;;4.22;1.98;;;;;;;17.96;83.40;96923.06;1718073;81;21019;-82
2021/08/10 02:02:55;;;;;;;2.75;1.80;;;;;;;18.03;83.25;96926.94;1752969;80;20988;-82
2021/08/10 02:05:21;;;;;;;3.27;2.17;;;;;;;18.04;82.95;96929.06;1683396;83;20980;-82
2021/08/10 02:07:47;;;;;;;4.60;2.02;;;;;;;18.06;82.84;96932.28;1717032;81;20984;-83
2021/08/10 02:10:13;;;;;;;4.53;2.40;;;;;;;18.05;82.78;96931.47;1690771;83;21097;-82
2021/08/10 02:12:39;;;;;;;3.17;2.25;;;;;;;18.07;82.84;96917.62;1722949;81;20982;-82
2021/08/10 02:15:06;;;;;;;3.55;2.10;;;;;;;18.06;82.76;96923.08;1724657;81;21071;-82
2021/08/10 02:17:32;;;;;;;3.67;1.65;;;;;;;18.06;82.79;96919.13;1710742;82;21419;-82
2021/08/10 02:19:57;;;;;;;4.12;2.33;;;;;;;18.08;82.66;96920.55;1712302;82;21001;-82
2021/08/10 02:22:23;;;;;;;5.37;3.30;;;;;;;18.07;82.62;96916.83;1705131;82;21014;-82
2021/08/10 02:24:55;;;;;;;5.78;3.70;;;;;;;18.05;82.52;96914.37;1705850;82;21071;-82
2021/08/10 02:27:51;;;;;;;8.40;4.90;;;;;;;18.04;82.44;96909.34;1739761;80;20917;-82
2021/08/10 02:30:20;;;;;;;7.03;3.67;;;;;;;18.03;82.39;96915.63;1710959;82;20957;-82
2021/08/10 02:32:46;;;;;;;6.80;3.30;;;;;;;18.00;82.37;96920.30;1710947;82;20984;-82
2021/08/10 02:35:15;;;;;;;5.20;3.08;;;;;;;17.98;82.28;96922.34;1750367;80;20956;-82
2021/08/10 02:37:41;;;;;;;6.50;3.52;;;;;;;17.95;82.31;96921.97;1746517;80;21288;-82
2021/08/10 02:40:08;;;;;;;4.58;3.33;;;;;;;17.90;82.26;96919.19;1747169;80;21050;-82
2021/08/10 02:42:34;;;;;;;9.20;3.10;;;;;;;17.84;82.52;96920.83;1749249;81;20994;-82
2021/08/10 02:45:00;;;;;;;4.50;2.62;;;;;;;17.81;82.84;96912.58;1749330;80;21422;-82
2021/08/10 02:47:28;;;;;;;3.22;2.60;;;;;;;17.80;83.01;96912.28;1713883;82;21023;-82
2021/08/10 02:49:53;;;;;;;3.10;2.17;;;;;;;17.82;83.14;96908.92;1711882;82;20922;-82
2021/08/10 02:52:19;;;;;;;2.98;2.35;;;;;;;17.79;82.93;96901.47;1716720;82;21117;-82
2021/08/10 02:54:47;;;;;;;4.75;3.15;;;;;;;17.73;83.08;96887.34;1760637;80;21111;-82
2021/08/10 02:57:26;;;;;;;4.25;2.40;;;;;;;17.70;83.28;96887.27;1748915;80;21042;-82
2021/08/10 03:00:06;;;;;;;3.40;2.27;;;;;;;17.69;83.50;96883.55;1746743;81;20971;-82
2021/08/10 03:02:36;;;;;;;4.50;2.72;;;;;;;17.70;83.66;96882.02;1707295;82;21007;-82
2021/08/10 03:05:14;;;;;;;3.12;2.10;;;;;;;17.71;83.57;96870.98;1718673;82;21379;-82
2021/08/10 03:07:43;;;;;;;3.00;2.40;;;;;;;17.71;83.53;96865.73;1728351;80;20957;-82
2021/08/10 03:10:10;;;;;;;10.00;3.33;;;;;;;17.71;83.47;96861.80;1746192;80;21376;-82
2021/08/10 03:12:39;;;;;;;3.85;2.30;;;;;;;17.70;83.75;96850.47;1717174;81;21495;-82
2021/08/10 03:15:06;;;;;;;3.25;2.25;;;;;;;17.67;83.58;96849.56;1722897;81;21293;-82
2021/08/10 03:17:36;;;;;;;3.02;2.20;;;;;;;17.66;83.53;96855.04;1720823;81;20996;-82
2021/08/10 03:20:03;;;;;;;3.67;2.80;;;;;;;17.69;83.59;96859.89;1721057;81;20997;-83
2021/08/10 03:22:29;;;;;;;2.92;2.45;;;;;;;17.69;83.49;96861.20;1709112;82;20971;-82
2021/08/10 03:24:55;;;;;;;2.30;2.10;;;;;;;17.68;83.52;96865.66;1704658;83;21035;-83
2021/08/10 03:27:22;;;;;;;5.37;2.30;;;;;;;17.68;83.49;96860.40;1680485;83;21379;-82
2021/08/10 03:29:48;;;;;;;4.12;2.25;;;;;;;17.68;83.53;96859.59;1741384;81;21319;-82
2021/08/10 03:32:14;;;;;;;5.45;2.30;;;;;;;17.68;83.61;96856.45;1700357;83;21030;-82
2021/08/10 03:34:40;;;;;;;3.55;1.98;;;;;;;17.68;83.58;96856.45;1707934;83;21030;-82
2021/08/10 03:37:05;;;;;;;3.08;1.85;;;;;;;17.70;83.70;96861.50;1688117;83;21146;-82
2021/08/10 03:39:31;;;;;;;2.55;2.30;;;;;;;17.70;83.67;96860.98;1696116;83;20992;-82
2021/08/10 03:41:57;;;;;;;3.00;2.15;;;;;;;17.71;83.71;96864.42;1695597;83;21018;-82
2021/08/10 03:44:23;;;;;;;2.45;2.05;;;;;;;17.75;83.81;96862.99;1703464;83;20935;-82
2021/08/10 03:46:49;;;;;;;3.67;2.45;;;;;;;17.73;83.69;96855.00;1701163;83;20963;-82
2021/08/10 03:49:18;;;;;;;4.12;2.62;;;;;;;17.68;83.68;96839.89;1692770;83;20995;-82
2021/08/10 03:51:44;;;;;;;4.75;2.45;;;;;;;17.65;83.81;96848.98;1699313;82;20947;-82
2021/08/10 03:54:10;;;;;;;5.30;2.10;;;;;;;17.66;83.94;96852.41;1717439;81;21550;-83
2021/08/10 03:56:35;;;;;;;3.45;2.10;;;;;;;17.68;83.96;96856.97;1719019;82;20993;-82
2021/08/10 03:59:01;;;;;;;3.92;2.10;;;;;;;17.72;83.86;96846.31;1737058;81;20949;-82
2021/08/10 04:01:27;;;;;;;3.70;2.22;;;;;;;17.75;83.79;96849.85;1749422;81;21455;-82
2021/08/10 04:03:55;;;;;;;3.02;2.50;;;;;;;17.77;83.76;96855.70;1740626;81;20977;-82
2021/08/10 04:06:21;;;;;;;3.33;2.27;;;;;;;17.79;83.62;96860.22;1747541;81;20976;-82
2021/08/10 04:08:47;;;;;;;3.50;2.30;;;;;;;17.84;83.61;96859.06;1736049;81;20975;-83
2021/08/10 04:11:19;;;;;;;3.35;2.25;;;;;;;17.87;83.34;96857.81;1695035;83;21003;-82
2021/08/10 04:13:46;;;;;;;5.05;2.33;;;;;;;17.84;83.24;96859.56;1702090;83;21426;-83
2021/08/10 04:16:14;;;;;;;4.12;2.20;;;;;;;17.79;83.41;96858.91;1698490;83;21022;-82
2021/08/10 04:18:40;;;;;;;3.92;2.42;;;;;;;17.79;83.48;96861.53;1662722;83;20972;-82
2021/08/10 04:21:06;;;;;;;5.53;2.45;;;;;;;17.79;83.40;96860.73;1690104;83;21071;-82
2021/08/10 04:23:32;;;;;;;2.90;2.10;;;;;;;17.79;83.38;96860.73;1721765;80;21001;-82
2021/08/10 04:25:58;;;;;;;2.55;1.92;;;;;;;17.77;83.41;96860.14;1722298;82;21382;-82
2021/08/10 04:28:23;;;;;;;3.50;2.45;;;;;;;17.75;83.56;96860.36;1724185;82;21329;-82
2021/08/10 04:30:49;;;;;;;5.33;2.45;;;;;;;17.77;83.39;96857.52;1752413;80;20995;-82
2021/08/10 04:33:15;;;;;;;3.00;2.70;;;;;;;17.76;83.33;96861.97;1754497;80;20948;-82
2021/08/10 04:35:41;;;;;;;4.67;2.80;;;;;;;17.73;83.58;96870.77;1708832;81;21303;-82
2021/08/10 04:38:07;;;;;;;3.20;2.12;;;;;;;17.70;83.62;96864.12;1725770;82;21004;-82
2021/08/10 04:40:33;;;;;;;3.55;2.25;;;;;;;17.66;83.51;96869.49;1740602;81;20957;-82
2021/08/10 04:42:59;;;;;;;2.87;2.25;;;;;;;17.64;83.64;96868.91;1717999;82;20951;-82
2021/08/10 04:45:25;;;;;;;5.92;2.27;;;;;;;17.63;83.72;96877.30;1716717;82;20989;-82
2021/08/10 04:47:52;;;;;;;4.45;2.30;;;;;;;17.62;83.79;96879.63;1699015;82;20985;-82
2021/08/10 04:50:18;;;;;;;3.17;2.25;;;;;;;17.64;83.59;96868.91;1717294;82;21005;-82
2021/08/10 04:52:44;;;;;;;3.52;2.30;;;;;;;17.66;83.55;96874.75;1718086;82;20960;-82
2021/08/10 04:55:10;;;;;;;4.05;2.10;;;;;;;17.68;83.65;96878.80;1739584;81;21007;-82
2021/08/10 04:57:36;;;;;;;3.15;2.30;;;;;;;17.70;83.66;96893.84;1729024;81;21030;-82
2021/08/10 05:00:03;;;;;;;3.50;2.58;;;;;;;17.74;83.76;96899.50;1726077;81;20994;-82
2021/08/10 05:02:29;;;;;;;4.33;2.95;;;;;;;17.76;83.68;96910.59;1729302;81;21006;-82
2021/08/10 05:04:54;;;;;;;3.55;2.30;;;;;;;17.78;83.65;96915.13;1724578;81;21021;-82
2021/08/10 05:07:20;;;;;;;3.95;2.17;;;;;;;17.77;83.61;96914.83;1727127;82;20967;-82
2021/08/10 05:09:46;;;;;;;4.25;2.22;;;;;;;17.76;83.64;96911.91;1725633;81;20969;-82
2021/08/10 05:12:12;;;;;;;5.42;3.05;;;;;;;17.77;83.75;96904.31;1722706;81;21039;-82
2021/08/10 05:14:38;;;;;;;4.20;2.33;;;;;;;17.81;84.17;96905.49;1725961;81;21443;-82
2021/08/10 05:17:04;;;;;;;2.50;2.10;;;;;;;17.87;84.22;96902.50;1718469;82;20972;-82
2021/08/10 05:19:30;;;;;;;2.40;1.80;;;;;;;17.91;84.11;96905.83;1750087;80;20920;-82
2021/08/10 05:21:55;;;;;;;2.87;2.20;;;;;;;17.93;83.99;96903.78;1721188;82;21379;-82
2021/08/10 05:24:21;;;;;;;2.80;2.10;;;;;;;17.94;84.04;96900.13;1748218;80;21046;-83
2021/08/10 05:26:47;;;;;;;4.33;2.22;;;;;;;17.95;84.08;96900.94;1720439;81;20925;-82
2021/08/10 05:29:13;;;;;;;3.42;2.10;;;;;;;17.95;84.12;96902.25;1716781;81;20995;-82
2021/08/10 05:31:39;;;;;;;3.22;2.40;;;;;;;17.94;84.12;96902.77;1717652;81;21312;-82
2021/08/10 05:34:04;;;;;;;4.55;2.72;;;;;;;17.98;84.12;96905.25;1720781;81;20971;-82
2021/08/10 05:36:30;;;;;;;3.45;2.30;;;;;;;18.02;84.11;96909.56;1717287;81;21053;-82
2021/08/10 05:38:56;;;;;;;3.40;1.98;;;;;;;18.05;84.07;96910.44;1693568;83;20961;-82
2021/08/10 05:41:22;;;;;;;3.98;2.02;;;;;;;18.06;84.18;96913.39;1726093;81;21005;-82
2021/08/10 05:43:49;;;;;;;4.53;2.60;;;;;;;18.10;84.29;96923.77;1722361;81;20958;-82
2021/08/10 05:46:15;;;;;;;3.27;2.50;;;;;;;18.13;84.77;96915.44;1717670;81;20922;-83
2021/08/10 05:48:40;;;;;;;4.17;2.35;;;;;;;18.17;84.86;96915.80;1723846;81;20953;-82
2021/08/10 05:51:06;;;;;;;3.85;2.37;;;;;;;18.19;84.99;96914.56;1726839;81;22494;-82
2021/08/10 05:53:32;;;;;;;5.62;3.42;;;;;;;18.24;84.98;96913.94;1719796;81;21009;-82
2021/08/10 05:55:59;;;;;;;3.17;2.30;;;;;;;18.27;85.03;96909.55;1724713;81;21052;-82
2021/08/10 05:58:25;;;;;;;4.62;2.45;;;;;;;18.28;85.03;96908.53;1719485;81;20958;-82
2021/08/10 06:00:50;;;;;;;3.00;2.12;;;;;;;18.32;85.18;96908.38;1720078;81;21076;-82
2021/08/10 06:03:16;;;;;;;3.20;2.15;;;;;;;18.37;85.28;96904.57;1729423;81;21008;-82
2021/08/10 06:05:42;;;;;;;2.47;2.27;;;;;;;18.43;85.33;96901.09;1717570;81;21056;-82
2021/08/10 06:08:07;;;;;;;3.52;2.25;;;;;;;18.49;85.13;96898.09;1732897;81;21091;-82
2021/08/10 06:10:33;;;;;;;3.90;2.12;;;;;;;18.53;84.89;96897.93;1721883;81;21037;-82
2021/08/10 06:13:00;;;;;;;2.35;1.98;;;;;;;18.54;84.64;96898.22;1715835;81;21005;-82
2021/08/10 06:15:27;;;;;;;3.20;2.50;;;;;;;18.59;84.61;96913.67;1720095;81;21038;-82
2021/08/10 06:17:53;;;;;;;3.67;2.80;;;;;;;18.62;84.52;96910.30;1720028;81;21010;-82
2021/08/10 06:20:20;;;;;;;3.77;2.30;;;;;;;18.59;84.45;96903.14;1728645;81;21064;-82
2021/08/10 06:22:46;;;;;;;3.80;2.12;;;;;;;18.62;84.38;96901.89;1724494;81;21010;-82
2021/08/10 06:25:12;;;;;;;4.20;2.50;;;;;;;18.65;84.28;96896.73;1712361;81;21041;-82
2021/08/10 06:27:38;;;;;;;2.55;2.27;;;;;;;18.67;84.16;96894.16;1712805;81;20969;-82
2021/08/10 06:30:06;;;;;;;2.98;1.95;;;;;;;18.75;84.10;96898.34;1717855;81;20952;-82
2021/08/10 06:32:32;;;;;;;2.15;1.95;;;;;;;18.76;83.82;96896.80;1720926;81;20976;-84
2021/08/10 06:34:57;;;;;;;3.52;2.62;;;;;;;18.79;83.75;96897.67;1723017;81;21000;-82
2021/08/10 06:37:23;;;;;;;3.83;2.67;;;;;;;18.82;83.78;96901.69;1723868;81;21051;-82
2021/08/10 06:39:49;;;;;;;4.30;2.85;;;;;;;18.83;83.83;96901.98;1721455;81;21020;-82
2021/08/10 06:42:21;;;;;;;3.92;2.30;;;;;;;18.86;83.93;96903.66;1712808;81;20976;-82
2021/08/10 06:44:47;;;;;;;3.08;2.37;;;;;;;18.92;83.75;96902.50;1711306;81;20919;-82
2021/08/10 06:47:14;;;;;;;3.60;2.70;;;;;;;18.97;83.26;96906.58;1711012;81;20981;-82
2021/08/10 06:49:40;;;;;;;3.37;2.47;;;;;;;19.04;81.98;96904.69;1715825;81;20926;-82
2021/08/10 06:52:08;;;;;;;3.37;2.50;;;;;;;19.15;82.72;96913.13;1685497;83;20923;-82
2021/08/10 06:54:34;;;;;;;4.25;2.42;;;;;;;19.18;82.64;96913.48;1705504;81;20945;-82
2021/08/10 06:57:05;;;;;;;3.60;2.25;;;;;;;19.23;82.66;96920.73;1729808;81;21293;-83
2021/08/10 06:59:28;;;;;;;7.47;2.20;;;;;;;19.26;82.73;96915.53;1722892;81;21036;-81
2021/08/10 07:01:53;;;;;;;2.98;2.35;;;;;;;19.31;82.65;96920.92;1716677;81;21285;-82
2021/08/10 07:04:19;;;;;;;3.25;2.95;;;;;;;19.35;82.61;96918.12;1718937;81;21026;-82
2021/08/10 07:06:45;;;;;;;3.25;2.65;;;;;;;19.43;82.12;96919.95;1724382;81;21027;-82
2021/08/10 07:09:10;;;;;;;3.17;2.67;;;;;;;19.52;82.17;96915.66;1724531;81;21436;-82
2021/08/10 07:11:41;;;;;;;2.80;2.50;;;;;;;19.57;82.51;96918.47;1709990;82;20994;-82
2021/08/10 07:14:11;;;;;;;4.70;2.77;;;;;;;19.62;82.63;96912.80;1704821;82;21506;-83
2021/08/10 07:16:34;;;;;;;5.40;2.80;;;;;;;19.66;82.57;96914.47;1717286;81;21035;-83
2021/08/10 07:18:59;;;;;;;3.75;2.33;;;;;;;19.69;82.69;96908.25;1711767;82;20964;-83
2021/08/10 07:21:26;;;;;;;3.35;2.30;;;;;;;19.71;82.52;96902.23;1733030;80;21063;-83
2021/08/10 07:23:52;;;;;;;3.42;2.65;;;;;;;19.77;82.43;96898.68;1731329;81;21421;-83
2021/08/10 07:26:17;;;;;;;4.28;2.55;;;;;;;19.82;82.38;96896.67;1728834;81;21430;-83
2021/08/10 07:28:43;;;;;;;3.75;2.55;;;;;;;19.87;82.58;96897.33;1730197;81;20964;-83
2021/08/10 07:31:09;;;;;;;5.12;3.20;;;;;;;19.90;82.85;96895.55;1734034;81;20944;-83
2021/08/10 07:33:34;;;;;;;3.02;2.72;;;;;;;19.96;82.88;96893.31;1734524;81;20953;-83
2021/08/10 07:36:02;;;;;;;4.40;3.72;;;;;;;20.03;82.36;96895.34;1723030;81;21299;-83
2021/08/10 07:38:28;;;;;;;3.25;2.55;;;;;;;20.11;80.18;96892.86;1738273;81;21004;-84
2021/08/10 07:40:53;;;;;;;4.25;2.75;;;;;;;20.19;81.83;96885.94;1730557;81;21356;-83
2021/08/10 07:43:19;;;;;;;4.47;3.10;;;;;;;20.27;80.61;96890.84;1730186;81;21078;-83
2021/08/10 07:45:45;;;;;;;5.83;3.47;;;;;;;20.35;79.24;96883.92;1706797;81;20936;-83
2021/08/10 07:48:11;;;;;;;3.92;3.40;;;;;;;20.43;78.58;96880.14;1735381;81;21063;-83
2021/08/10 07:50:37;;;;;;;4.80;3.10;;;;;;;20.52;77.97;96880.88;1729624;81;21336;-84
2021/08/10 07:53:03;;;;;;;4.45;3.15;;;;;;;20.61;78.24;96876.03;1731508;81;21040;-83
2021/08/10 07:55:28;;;;;;;4.30;3.05;;;;;;;20.67;77.76;96878.56;1731304;81;21005;-83
2021/08/10 07:57:54;;;;;;;4.65;2.50;;;;;;;20.74;77.97;96876.30;1709828;82;20929;-83
2021/08/10 08:00:20;;;;;;;3.33;3.00;;;;;;;20.78;77.10;96875.58;1713794;82;21372;-83
2021/08/10 08:02:46;;;;;;;3.00;2.70;;;;;;;20.87;77.61;96876.83;1707368;83;20907;-83
2021/08/10 08:05:11;;;;;;;4.70;3.30;;;;;;;20.80;76.57;96876.15;1739838;81;20944;-83
2021/08/10 08:07:37;;;;;;;3.17;2.10;;;;;;;20.75;78.41;96873.41;1736929;81;21331;-83
2021/08/10 08:10:04;;;;;;;3.35;2.75;;;;;;;20.76;78.47;96875.02;1717657;82;20980;-84
2021/08/10 08:12:29;;;;;;;3.47;2.60;;;;;;;20.75;78.91;96869.45;1711624;82;21040;-84
2021/08/10 08:14:55;;;;;;;3.10;2.50;;;;;;;20.84;78.94;96871.23;1723872;82;20933;-84
2021/08/10 08:17:21;;;;;;;3.40;3.00;;;;;;;20.83;79.21;96866.98;1728066;81;21413;-84
2021/08/10 08:19:47;;;;;;;3.05;2.52;;;;;;;20.83;79.21;96871.74;1703563;82;21020;-84
2021/08/10 08:22:13;;;;;;;4.40;2.95;;;;;;;20.91;79.35;96865.27;1708858;82;20988;-84
2021/08/10 08:24:39;;;;;;;3.70;3.15;;;;;;;21.04;78.72;96872.12;1725788;81;20973;-84
2021/08/10 08:27:05;;;;;;;3.17;2.30;;;;;;;21.17;75.25;96869.20;1729529;81;20966;-85
2021/08/10 08:29:31;;;;;;;5.70;2.80;;;;;;;21.33;74.66;96865.02;1702221;82;21136;-84
2021/08/10 08:31:57;;;;;;;3.65;2.20;;;;;;;21.49;76.32;96864.25;1730571;81;21005;-84
2021/08/10 08:34:22;;;;;;;3.17;2.87;;;;;;;21.65;74.23;96863.98;1708063;82;21299;-84
2021/08/10 08:36:48;;;;;;;3.25;2.77;;;;;;;21.81;74.72;96869.79;1727904;81;21024;-85
2021/08/10 08:39:14;;;;;;;3.95;2.75;;;;;;;21.99;72.85;96864.25;1729453;81;20940;-85
2021/08/10 08:41:40;;;;;;;4.33;2.70;;;;;;;22.11;72.66;96865.48;1718977;82;20969;-85
2021/08/10 08:44:06;;;;;;;3.98;3.25;;;;;;;22.23;72.43;96856.13;1722895;82;20995;-85
2021/08/10 08:46:32;;;;;;;4.87;3.30;;;;;;;22.43;71.23;96867.78;1729030;81;21282;-84
2021/08/10 08:48:58;;;;;;;3.77;3.37;;;;;;;22.53;71.35;96863.68;1705250;82;21277;-84
2021/08/10 08:51:24;;;;;;;3.95;3.55;;;;;;;22.45;71.65;96865.72;1713399;82;20946;-84
2021/08/10 08:53:52;;;;;;;6.08;3.75;;;;;;;22.36;71.61;96860.55;1727431;82;20943;-84
2021/08/10 08:56:21;;;;;;;4.00;3.00;;;;;;;22.22;71.49;96860.63;1727215;81;20960;-85
2021/08/10 08:58:48;;;;;;;3.80;2.85;;;;;;;22.07;73.15;96853.27;1725692;81;20936;-84
2021/08/10 09:01:13;;;;;;;4.80;3.00;;;;;;;21.97;73.97;96855.75;1730852;81;21349;-84
2021/08/10 09:03:39;;;;;;;4.72;2.83;;;;;;;21.81;74.58;96856.56;1727577;81;20921;-84
2021/08/10 09:06:05;;;;;;;3.20;2.90;;;;;;;21.66;75.36;96857.64;1726940;81;20984;-84
2021/08/10 09:08:34;;;;;;;3.47;3.17;;;;;;;21.56;75.78;96852.45;1727994;81;21354;-84
2021/08/10 09:11:03;;;;;;;4.08;3.62;;;;;;;21.51;76.32;96852.91;1710731;82;21055;-84
2021/08/10 09:13:30;;;;;;;4.70;4.05;;;;;;;21.71;76.55;96852.42;1723766;81;20939;-85
2021/08/10 09:16:04;;;;;;;3.50;3.20;;;;;;;21.85;75.71;96843.13;1730632;81;20953;-85
2021/08/10 09:18:30;;;;;;;4.10;3.47;;;;;;;21.80;75.64;96849.64;1716148;82;21324;-84
2021/08/10 09:21:15;;;;;;;4.42;3.55;;;;;;;21.67;75.69;96842.86;1726597;82;20903;-85
2021/08/10 09:23:56;;;;;;;4.03;3.60;;;;;;;21.75;75.44;96844.28;1686699;83;21053;-84
2021/08/10 09:26:33;;;;;;;5.08;3.50;;;;;;;21.62;75.36;96844.08;1710290;82;21038;-84
2021/08/10 09:29:00;;;;;;;3.95;3.00;;;;;;;21.60;76.34;96848.01;1706844;82;20923;-85
2021/08/10 09:31:41;;;;;;;4.17;3.33;;;;;;;21.80;76.48;96843.86;1705409;82;20947;-83
2021/08/10 09:34:18;;;;;;;3.30;2.72;;;;;;;21.97;75.60;96838.55;1712848;82;21289;-83
2021/08/10 09:36:44;;;;;;;4.25;3.50;;;;;;;22.03;74.73;96838.09;1737834;80;20963;-83
2021/08/10 09:39:10;;;;;;;4.25;2.92;;;;;;;22.18;75.39;96837.54;1705533;82;21297;-82
2021/08/10 09:41:36;;;;;;;4.53;2.95;;;;;;;22.31;74.92;96835.34;1712585;82;20961;-83
2021/08/10 09:44:14;;;;;;;4.35;2.17;;;;;;;22.50;73.27;96831.08;1739754;80;20996;-83
2021/08/10 09:46:49;;;;;;;3.62;3.12;;;;;;;22.64;70.39;96831.78;1699812;82;21045;-83
2021/08/10 09:49:16;;;;;;;3.40;2.60;;;;;;;22.80;70.82;96831.96;1702497;82;21084;-83
2021/08/10 09:51:46;;;;;;;5.05;2.37;;;;;;;22.95;69.91;96828.98;1702542;82;21370;-83
2021/08/10 09:54:13;;;;;;;4.72;2.77;;;;;;;23.12;68.58;96826.77;1706442;82;20961;-82
2021/08/10 09:56:55;;;;;;;2.90;2.30;;;;;;;23.25;67.70;96827.13;1708123;83;21062;-83
2021/08/10 09:59:27;;;;;;;3.67;2.42;;;;;;;23.32;67.14;96823.77;1704653;82;21078;-83
2021/08/10 10:01:57;;;;;;;2.92;2.62;;;;;;;23.40;68.66;96823.02;1702567;82;21061;-83
2021/08/10 10:04:26;;;;;;;3.12;2.70;;;;;;;23.36;68.71;96820.08;1701897;82;21055;-83
2021/08/10 10:06:54;;;;;;;3.35;2.75;;;;;;;23.47;68.41;96820.98;1697262;82;20964;-83
2021/08/10 10:09:22;;;;;;;3.30;2.25;;;;;;;23.56;68.66;96816.27;1713148;82;21019;-83
2021/08/10 10:11:50;;;;;;;3.37;2.35;;;;;;;23.64;68.62;96817.70;1712092;82;20919;-83
2021/08/10 10:14:15;;;;;;;3.22;2.50;;;;;;;23.72;67.92;96817.73;1702415;82;21335;-82
2021/08/10 10:16:50;;;;;;;3.35;2.40;;;;;;;23.82;66.21;96819.95;1718376;82;21306;-83
2021/08/10 10:19:17;;;;;;;3.50;2.37;;;;;;;23.93;65.48;96807.55;1705045;82;21005;-83
2021/08/10 10:21:53;;;;;;;2.90;2.20;;;;;;;24.07;64.89;96806.55;1698832;82;21006;-83
2021/08/10 10:24:20;;;;;;;2.52;2.30;;;;;;;24.18;64.74;96804.23;1693638;82;21323;-83
2021/08/10 10:27:03;;;;;;;3.40;2.20;;;;;;;24.24;65.13;96808.00;1693572;84;21019;-83
2021/08/10 10:29:29;;;;;;;2.55;2.30;;;;;;;24.31;64.22;96804.33;1699232;84;20920;-83
2021/08/10 10:31:55;;;;;;;4.78;2.33;;;;;;;24.42;62.90;96805.98;1688279;84;20935;-82
2021/08/10 10:34:21;;;;;;;3.35;2.67;;;;;;;24.54;66.01;96806.55;1712062;83;21394;-83
2021/08/10 10:36:48;;;;;;;3.60;2.55;;;;;;;24.59;63.27;96807.11;1705650;83;20953;-82
2021/08/10 10:39:26;;;;;;;3.45;2.83;;;;;;;24.60;64.04;96801.53;1710563;81;21018;-82
2021/08/10 10:41:53;;;;;;;3.50;2.58;;;;;;;24.64;62.68;96795.16;1700970;81;20996;-82
2021/08/10 10:44:39;;;;;;;4.20;3.17;;;;;;;24.74;63.26;96794.67;1700982;83;21557;-83
2021/08/10 10:47:29;;;;;;;3.10;2.40;;;;;;;24.84;62.96;96792.55;1721752;81;21008;-83
2021/08/10 10:50:03;;;;;;;4.33;2.60;;;;;;;24.83;61.21;96792.29;1729972;81;20953;-83
2021/08/10 10:52:31;;;;;;;3.12;2.30;;;;;;;24.84;60.34;96787.23;1724366;81;21468;-83
2021/08/10 10:54:57;;;;;;;2.67;2.33;;;;;;;24.95;60.08;96792.05;1734980;81;20957;-84
2021/08/10 10:57:34;;;;;;;4.25;2.50;;;;;;;25.01;58.34;96790.49;1720124;81;21007;-83
2021/08/10 11:00:12;;;;;;;2.98;2.50;;;;;;;25.03;58.35;96784.37;1708016;81;21017;-83
2021/08/10 11:02:36;;;;;;;3.02;2.50;;;;;;;25.09;59.50;96783.87;1730109;81;20945;-82
2021/08/10 11:05:17;;;;;;;5.53;2.85;;;;;;;25.20;58.92;96783.33;1731104;81;20967;-82
2021/08/10 11:07:54;;;;;;;2.72;2.40;;;;;;;25.28;62.27;96781.49;1725358;81;21020;-83
2021/08/10 11:10:39;;;;;;;4.15;2.40;;;;;;;25.37;61.65;96779.88;1737655;81;20913;-83
2021/08/10 11:13:18;;;;;;;3.12;2.40;;;;;;;25.42;59.12;96767.93;1721619;81;21004;-83
2021/08/10 11:15:50;;;;;;;4.35;2.55;;;;;;;25.33;58.55;96772.17;1715401;81;21456;-83
2021/08/10 11:18:18;;;;;;;;;;;;;;;25.33;58.55;96772.17;1738910;81;21027;-83
2021/08/10 11:20:54;;;;;;;3.35;2.60;;;;;;;24.97;61.89;96770.80;1704101;83;20103;-83
2021/08/10 11:23:26;;;;;;;3.50;2.50;;;;;;;24.97;61.89;96770.80;1684232;83;21079;-83
2021/08/10 11:26:09;;;;;;;3.35;2.67;;;;;;;25.07;62.37;96772.70;1710087;82;21051;-82
2021/08/10 11:28:46;;;;;;;2.80;2.47;;;;;;;25.12;61.50;96765.52;1704500;83;21013;-82
2021/08/10 11:31:13;;;;;;;3.08;2.72;;;;;;;25.34;59.43;96756.48;1712975;82;20997;-82
2021/08/10 11:33:42;;;;;;;4.15;2.55;;;;;;;25.34;59.43;96756.48;1711861;82;21018;-82
2021/08/10 11:36:16;;;;;;;3.50;2.40;;;;;;;25.51;58.38;96763.66;1709991;82;21000;-82
2021/08/10 11:38:53;;;;;;;3.92;2.70;;;;;;;25.62;57.58;96757.27;1708477;82;20987;-82